Time;durP1;ratioP1;P1;durP2;ratioP2;P2;SDS_P1;SDS_P2;PMS_P1;PMS_P2;Temp;Humidity;BMP_temperature;BMP_pressure;BME280_temperature;BME280_humidity;BME280_pressure;Samples;Min_cycle;Max_cycle;Signal;HPM_P1;HPM_P2
2023/01/30 00:00:31;;;;;;;12.00;6.40;;;3.20;99.90;;;;;;7387023;19;20514;-72
2023/01/30 00:02:56;;;;;;;10.03;6.97;;;3.20;99.90;;;;;;7389791;19;20143;-72
2023/01/30 00:05:22;;;;;;;10.73;6.40;;;3.30;99.90;;;;;;7388314;19;20516;-71
2023/01/30 00:07:48;;;;;;;12.10;7.10;;;3.30;99.90;;;;;;7388549;19;20135;-74
2023/01/30 00:10:14;;;;;;;11.60;7.10;;;3.30;99.90;;;;;;7388070;19;20147;-71
2023/01/30 00:12:39;;;;;;;11.43;6.97;;;3.30;99.90;;;;;;7388869;19;20510;-74
2023/01/30 00:15:06;;;;;;;14.07;7.53;;;3.30;99.90;;;;;;7388810;19;20142;-73
2023/01/30 00:17:32;;;;;;;10.33;6.43;;;3.30;99.90;;;;;;7386928;19;20135;-74
2023/01/30 00:19:58;;;;;;;9.37;6.40;;;3.10;99.90;;;;;;7387744;19;20206;-72
2023/01/30 00:22:23;;;;;;;10.77;6.67;;;3.20;99.90;;;;;;7384243;19;20549;-74
2023/01/30 00:24:49;;;;;;;10.47;7.00;;;3.20;99.90;;;;;;7388273;19;20171;-72
2023/01/30 00:27:15;;;;;;;11.43;6.80;;;3.20;99.90;;;;;;7389858;19;20596;-72
2023/01/30 00:29:41;;;;;;;9.83;6.93;;;3.20;99.90;;;;;;7394325;19;20146;-72
2023/01/30 00:32:07;;;;;;;11.97;7.17;;;3.20;99.90;;;;;;7395407;19;20487;-71
2023/01/30 00:34:32;;;;;;;10.53;7.10;;;3.20;99.90;;;;;;7396281;19;20430;-72
2023/01/30 00:36:59;;;;;;;11.17;6.80;;;3.20;99.90;;;;;;7394330;19;20163;-73
2023/01/30 00:39:25;;;;;;;12.37;6.97;;;3.10;99.90;;;;;;7395045;19;20146;-73
2023/01/30 00:47:20;;;;;;;10.83;7.03;;;3.00;99.90;;;;;;7395734;19;20212;-72
2023/01/30 00:49:46;;;;;;;10.80;6.77;;;3.00;99.90;;;;;;7393689;19;20138;-72
2023/01/30 00:52:11;;;;;;;11.43;7.17;;;3.10;99.90;;;;;;7394194;19;20138;-73
2023/01/30 00:54:37;;;;;;;10.17;6.73;;;3.10;99.90;;;;;;7393392;19;20217;-73
2023/01/30 00:57:03;;;;;;;11.10;6.37;;;3.10;99.90;;;;;;7391371;19;20152;-73
2023/01/30 00:59:29;;;;;;;12.00;5.97;;;3.10;99.90;;;;;;7394953;19;20151;-73
2023/01/30 01:01:55;;;;;;;11.40;6.50;;;3.10;99.90;;;;;;7392296;19;20658;-71
2023/01/30 01:04:21;;;;;;;13.93;7.03;;;3.10;99.90;;;;;;7387456;19;20135;-73
2023/01/30 01:06:46;;;;;;;10.17;6.47;;;3.20;99.90;;;;;;7394660;19;20154;-74
2023/01/30 01:09:12;;;;;;;9.33;6.27;;;3.20;99.90;;;;;;7393030;19;20515;-73
2023/01/30 01:11:38;;;;;;;10.57;6.47;;;3.30;99.90;;;;;;7397711;19;20145;-73
2023/01/30 01:14:04;;;;;;;12.83;6.47;;;3.10;99.90;;;;;;7394645;19;20150;-75
2023/01/30 01:16:32;;;;;;;11.10;6.87;;;2.80;99.90;;;;;;7394659;19;20139;-73
2023/01/30 01:18:58;;;;;;;11.50;6.73;;;2.90;99.90;;;;;;7394045;19;20643;-74
2023/01/30 01:21:24;;;;;;;10.40;7.13;;;3.00;99.90;;;;;;7391737;19;20155;-72
2023/01/30 01:23:51;;;;;;;11.50;6.23;;;3.10;99.90;;;;;;7393112;19;20161;-73
2023/01/30 01:26:17;;;;;;;11.10;7.20;;;3.10;99.90;;;;;;7392684;19;20138;-73
2023/01/30 01:28:43;;;;;;;12.27;6.90;;;3.20;99.90;;;;;;7392533;19;20521;-73
2023/01/30 01:31:13;;;;;;;11.90;6.53;;;3.10;99.90;;;;;;7392893;19;20206;-72
2023/01/30 01:33:40;;;;;;;11.57;7.57;;;3.00;99.90;;;;;;7392171;19;20222;-73
2023/01/30 01:36:07;;;;;;;11.73;6.23;;;3.10;99.90;;;;;;7391791;19;20167;-73
2023/01/30 01:38:33;;;;;;;10.87;7.07;;;3.10;99.90;;;;;;7391482;19;20142;-73
2023/01/30 01:41:02;;;;;;;11.03;7.53;;;3.10;99.90;;;;;;7392924;19;20126;-72
2023/01/30 01:43:37;;;;;;;13.07;7.43;;;3.00;99.90;;;;;;7390662;19;20138;-72
2023/01/30 01:46:07;;;;;;;13.93;7.00;;;3.10;99.90;;;;;;7391577;19;20210;-72
2023/01/30 01:48:47;;;;;;;9.90;6.60;;;3.00;99.90;;;;;;7394299;19;20138;-72
2023/01/30 01:51:21;;;;;;;11.43;6.83;;;3.00;99.90;;;;;;7391927;19;20479;-71
2023/01/30 01:53:55;;;;;;;8.27;6.07;;;2.90;99.90;;;;;;7390115;19;20153;-72
2023/01/30 01:56:21;;;;;;;11.93;6.77;;;3.00;99.90;;;;;;7392697;19;20146;-72
2023/01/30 01:58:51;;;;;;;11.53;6.63;;;3.00;99.90;;;;;;7393255;19;20232;-72
2023/01/30 02:01:18;;;;;;;12.13;6.77;;;3.00;99.90;;;;;;7389330;19;20185;-72
2023/01/30 02:03:48;;;;;;;10.07;6.80;;;3.00;99.90;;;;;;7392335;19;20165;-72
2023/01/30 02:06:16;;;;;;;11.07;6.67;;;3.00;99.90;;;;;;7389659;19;20230;-73
2023/01/30 02:08:57;;;;;;;8.33;6.00;;;2.90;99.90;;;;;;7393275;19;20142;-72
2023/01/30 02:11:37;;;;;;;13.60;7.10;;;2.80;99.90;;;;;;7385406;19;20134;-72
2023/01/30 02:14:04;;;;;;;11.23;6.73;;;2.80;99.90;;;;;;7392799;19;20147;-72
2023/01/30 02:16:30;;;;;;;10.73;6.93;;;2.90;99.90;;;;;;7390618;19;20163;-73
2023/01/30 02:18:56;;;;;;;9.63;6.53;;;3.00;99.90;;;;;;7391652;19;20151;-73
2023/01/30 02:21:51;;;;;;;11.90;6.90;;;3.00;99.90;;;;;;7387413;19;20162;-72
2023/01/30 02:24:43;;;;;;;11.13;6.73;;;3.10;99.90;;;;;;7391402;19;20238;-72
2023/01/30 02:27:47;;;;;;;11.20;7.00;;;3.00;99.90;;;;;;7390259;19;20154;-73
2023/01/30 02:30:31;;;;;;;12.80;7.20;;;3.00;99.90;;;;;;7391524;19;20160;-73
2023/01/30 02:33:33;;;;;;;10.07;6.50;;;3.00;99.90;;;;;;7389919;19;20127;-74
2023/01/30 02:36:05;;;;;;;9.63;6.87;;;3.10;99.90;;;;;;7390446;19;20169;-73
2023/01/30 02:38:53;;;;;;;10.23;6.67;;;3.10;99.90;;;;;;7392137;19;20961;-71
2023/01/30 02:41:32;;;;;;;9.43;6.33;;;3.10;99.90;;;;;;7389619;19;20558;-73
2023/01/30 02:44:31;;;;;;;10.10;6.87;;;3.10;99.90;;;;;;7390541;19;20508;-73
2023/01/30 02:47:01;;;;;;;9.63;6.37;;;3.10;99.90;;;;;;7386778;19;20142;-73
2023/01/30 02:49:34;;;;;;;10.53;6.83;;;3.00;99.90;;;;;;7389955;19;20151;-73
2023/01/30 02:52:01;;;;;;;12.03;7.27;;;2.90;99.90;;;;;;7391758;19;20146;-72
2023/01/30 02:54:28;;;;;;;10.07;7.30;;;3.00;99.90;;;;;;7389884;19;20504;-72
2023/01/30 02:56:59;;;;;;;9.60;6.47;;;2.90;99.90;;;;;;7390761;19;20591;-73
2023/01/30 02:59:37;;;;;;;13.00;7.10;;;2.90;99.90;;;;;;7389323;19;20143;-73
2023/01/30 03:02:04;;;;;;;11.13;6.93;;;2.50;99.90;;;;;;7388534;19;20145;-73
2023/01/30 03:04:47;;;;;;;10.10;7.10;;;2.70;99.90;;;;;;7390489;19;20218;-74
2023/01/30 03:08:03;;;;;;;9.97;6.60;;;2.90;99.90;;;;;;7389994;19;20134;-73
2023/01/30 03:10:49;;;;;;;10.67;7.20;;;2.90;99.90;;;;;;7389133;19;20169;-73
2023/01/30 03:13:48;;;;;;;8.90;6.07;;;2.90;99.90;;;;;;7388735;19;20194;-72
2023/01/30 03:16:24;;;;;;;10.97;6.87;;;2.80;99.90;;;;;;7390367;19;20211;-72
2023/01/30 03:18:50;;;;;;;11.33;6.63;;;2.80;99.90;;;;;;7391845;19;20130;-73
2023/01/30 03:21:16;;;;;;;10.80;6.80;;;2.70;99.90;;;;;;7386873;19;20166;-72
2023/01/30 03:23:45;;;;;;;9.60;6.80;;;2.70;99.90;;;;;;7388603;19;20523;-73
2023/01/30 03:26:18;;;;;;;13.00;7.30;;;2.70;99.90;;;;;;7390023;19;20162;-72
2023/01/30 03:28:47;;;;;;;11.33;7.20;;;2.80;99.90;;;;;;7389481;19;20558;-73
2023/01/30 03:31:13;;;;;;;10.77;7.10;;;2.80;99.90;;;;;;7387659;19;20206;-72
2023/01/30 03:33:38;;;;;;;11.47;6.93;;;2.80;99.90;;;;;;7388126;19;20548;-72
2023/01/30 03:36:05;;;;;;;10.97;7.20;;;2.90;99.90;;;;;;7387093;19;20150;-71
2023/01/30 03:38:30;;;;;;;10.03;6.60;;;2.90;99.90;;;;;;7387566;19;20170;-73
2023/01/30 03:40:56;;;;;;;10.43;6.77;;;2.90;99.90;;;;;;7390797;19;20139;-73
2023/01/30 03:43:22;;;;;;;11.37;6.10;;;2.80;99.90;;;;;;7387521;19;20167;-72
2023/01/30 03:45:48;;;;;;;11.13;6.30;;;2.90;99.90;;;;;;7386958;19;20154;-73
2023/01/30 03:48:13;;;;;;;10.67;6.20;;;2.90;99.90;;;;;;7387789;19;20139;-72
2023/01/30 03:50:39;;;;;;;11.40;6.50;;;3.00;99.90;;;;;;7388385;19;20515;-73
2023/01/30 03:53:05;;;;;;;11.73;6.53;;;3.10;99.90;;;;;;7389004;19;20158;-73
2023/01/30 03:55:31;;;;;;;10.10;6.03;;;3.10;99.90;;;;;;7386681;19;20141;-73
2023/01/30 03:57:57;;;;;;;9.63;6.20;;;3.10;99.90;;;;;;7389737;19;20151;-72
2023/01/30 04:00:23;;;;;;;10.10;6.43;;;3.10;99.90;;;;;;7385495;19;20193;-73
2023/01/30 04:02:49;;;;;;;11.00;6.60;;;3.10;99.90;;;;;;7391936;19;20150;-72
2023/01/30 04:05:15;;;;;;;11.27;6.50;;;2.90;99.90;;;;;;7398261;19;20158;-72
2023/01/30 04:07:41;;;;;;;9.87;6.23;;;2.90;99.90;;;;;;7395603;19;20150;-71
2023/01/30 04:10:07;;;;;;;9.67;5.77;;;2.80;99.90;;;;;;7397818;19;20151;-71
2023/01/30 04:12:33;;;;;;;12.20;6.50;;;3.00;99.90;;;;;;7394405;19;20218;-73
2023/01/30 04:14:58;;;;;;;8.80;5.50;;;3.00;99.90;;;;;;7394396;19;20171;-73
2023/01/30 04:17:24;;;;;;;9.83;6.13;;;3.00;99.90;;;;;;7397610;19;20174;-72
2023/01/30 04:19:50;;;;;;;9.50;6.27;;;3.00;99.90;;;;;;7394979;19;20645;-72
2023/01/30 04:22:15;;;;;;;9.67;5.97;;;2.80;99.90;;;;;;7396344;19;20545;-73
2023/01/30 04:24:41;;;;;;;8.97;6.10;;;3.00;99.90;;;;;;7394137;19;20123;-73
2023/01/30 04:27:08;;;;;;;9.57;5.70;;;2.80;99.90;;;;;;7391547;19;20153;-72
2023/01/30 04:29:34;;;;;;;9.23;6.43;;;2.90;99.90;;;;;;7394127;19;20652;-73
2023/01/30 04:31:59;;;;;;;8.93;5.90;;;3.10;99.90;;;;;;7395451;19;20135;-73
2023/01/30 04:34:25;;;;;;;9.10;5.57;;;3.20;99.90;;;;;;7396289;19;20496;-74
2023/01/30 04:36:51;;;;;;;8.93;6.00;;;2.90;99.90;;;;;;7396607;19;20207;-72
2023/01/30 04:39:17;;;;;;;10.83;6.20;;;3.00;99.90;;;;;;7395512;19;20133;-72
2023/01/30 04:41:42;;;;;;;8.63;5.60;;;3.10;99.90;;;;;;7395294;19;20145;-72
2023/01/30 04:44:08;;;;;;;8.33;5.13;;;3.30;99.90;;;;;;7393184;19;20139;-72
2023/01/30 04:46:34;;;;;;;8.80;5.40;;;3.10;99.90;;;;;;7394439;19;20151;-73
2023/01/30 04:49:00;;;;;;;9.40;5.40;;;2.70;99.90;;;;;;7395485;19;20134;-73
2023/01/30 04:51:25;;;;;;;8.83;5.10;;;2.60;99.90;;;;;;7394195;19;20130;-72
2023/01/30 04:53:51;;;;;;;7.73;5.07;;;2.70;99.90;;;;;;7393991;19;20570;-72
2023/01/30 04:56:17;;;;;;;9.10;5.57;;;2.70;99.90;;;;;;7393897;19;20130;-72
2023/01/30 04:58:42;;;;;;;10.20;5.23;;;2.90;99.90;;;;;;7393258;19;20123;-72
2023/01/30 05:01:12;;;;;;;8.77;4.83;;;2.70;99.90;;;;;;7390795;19;20507;-71
2023/01/30 05:03:38;;;;;;;9.53;5.80;;;3.00;99.90;;;;;;7391739;19;20143;-73
2023/01/30 05:06:04;;;;;;;10.13;5.37;;;3.20;99.90;;;;;;7394211;19;20158;-73
2023/01/30 05:08:30;;;;;;;8.70;5.30;;;3.10;99.90;;;;;;7393447;19;20580;-73
2023/01/30 05:10:56;;;;;;;7.43;4.93;;;3.20;99.90;;;;;;7393933;19;20174;-72
2023/01/30 05:13:22;;;;;;;9.33;4.97;;;3.10;99.90;;;;;;7393248;19;20146;-72
2023/01/30 05:15:48;;;;;;;10.07;5.87;;;3.20;99.90;;;;;;7392666;19;20599;-72
2023/01/30 05:18:14;;;;;;;8.57;5.10;;;3.20;99.90;;;;;;7392734;19;20618;-72
2023/01/30 05:20:39;;;;;;;10.17;5.37;;;3.30;99.90;;;;;;7392377;19;20570;-72
2023/01/30 05:23:05;;;;;;;7.57;5.60;;;3.20;99.90;;;;;;7392749;19;20558;-73
2023/01/30 05:25:31;;;;;;;7.70;5.00;;;3.10;99.90;;;;;;7392079;19;20131;-72
2023/01/30 05:27:59;;;;;;;8.90;5.57;;;3.40;99.90;;;;;;7394345;19;20475;-72
2023/01/30 05:30:25;;;;;;;11.00;5.50;;;3.50;99.90;;;;;;7393752;19;20143;-72
2023/01/30 05:32:50;;;;;;;8.43;4.93;;;3.10;99.90;;;;;;7393079;19;20442;-71
2023/01/30 05:35:16;;;;;;;9.57;5.13;;;3.10;99.90;;;;;;7393096;19;20139;-72
2023/01/30 05:37:42;;;;;;;8.90;4.93;;;3.20;99.90;;;;;;7393642;19;20188;-72
2023/01/30 05:40:08;;;;;;;7.00;4.50;;;3.00;99.90;;;;;;7393914;19;20145;-72
2023/01/30 05:42:34;;;;;;;7.17;5.20;;;3.10;99.90;;;;;;7392610;19;20642;-73
2023/01/30 05:45:00;;;;;;;10.37;4.90;;;3.30;99.90;;;;;;7394478;19;20135;-74
2023/01/30 05:47:26;;;;;;;11.20;5.50;;;3.40;99.90;;;;;;7391373;19;20147;-73
2023/01/30 05:49:51;;;;;;;7.17;4.67;;;3.50;99.90;;;;;;7389654;19;20134;-74
2023/01/30 05:52:17;;;;;;;8.97;5.77;;;3.50;99.90;;;;;;7392179;19;20595;-72
2023/01/30 05:54:43;;;;;;;8.60;5.17;;;3.10;99.90;;;;;;7393645;19;20137;-74
2023/01/30 05:57:09;;;;;;;9.40;4.90;;;3.20;99.90;;;;;;7392252;19;20678;-72
2023/01/30 05:59:34;;;;;;;8.07;4.93;;;3.40;99.90;;;;;;7392554;19;20184;-73
2023/01/30 06:02:01;;;;;;;8.27;5.70;;;3.50;99.90;;;;;;7392072;19;20158;-73
2023/01/30 06:04:27;;;;;;;8.23;4.97;;;3.40;99.90;;;;;;7389582;19;20146;-72
2023/01/30 06:06:52;;;;;;;9.10;5.33;;;3.60;99.90;;;;;;7392744;19;20174;-73
2023/01/30 06:09:18;;;;;;;8.63;4.73;;;3.50;99.90;;;;;;7392918;19;20142;-72
2023/01/30 06:11:44;;;;;;;10.30;5.70;;;3.50;99.90;;;;;;7391837;19;20615;-72
2023/01/30 06:14:09;;;;;;;8.73;4.97;;;3.40;99.90;;;;;;7390906;19;20143;-73
2023/01/30 06:16:35;;;;;;;8.07;5.13;;;3.50;99.90;;;;;;7390046;19;20830;-73
2023/01/30 06:19:01;;;;;;;7.43;4.83;;;3.40;99.90;;;;;;7392001;19;20241;-73
2023/01/30 06:21:26;;;;;;;8.90;5.27;;;3.40;99.90;;;;;;7390500;19;20151;-73
2023/01/30 06:23:52;;;;;;;8.47;4.83;;;3.20;99.90;;;;;;7394613;19;20157;-72
2023/01/30 06:26:18;;;;;;;9.10;5.47;;;3.30;99.90;;;;;;7391529;19;20140;-72
2023/01/30 06:28:44;;;;;;;9.07;5.30;;;3.30;99.90;;;;;;7391673;19;20127;-73
2023/01/30 06:31:09;;;;;;;10.67;5.27;;;3.50;99.90;;;;;;7386291;19;20138;-72
2023/01/30 06:33:35;;;;;;;8.80;5.10;;;3.60;99.90;;;;;;7390165;19;20131;-72
2023/01/30 06:36:01;;;;;;;8.53;4.83;;;3.80;99.90;;;;;;7390223;19;20218;-72
2023/01/30 06:38:27;;;;;;;9.07;5.50;;;3.80;99.90;;;;;;7389153;19;20585;-73
2023/01/30 06:40:53;;;;;;;7.43;4.87;;;3.60;99.90;;;;;;7399776;19;20155;-73
2023/01/30 06:43:19;;;;;;;12.13;5.53;;;3.50;99.90;;;;;;7393001;19;20139;-73
2023/01/30 06:45:44;;;;;;;9.90;4.80;;;3.20;99.90;;;;;;7391140;19;20179;-72
2023/01/30 06:48:10;;;;;;;9.23;5.53;;;3.10;99.90;;;;;;7393165;19;20614;-72
2023/01/30 06:50:36;;;;;;;9.60;4.70;;;3.10;99.90;;;;;;7393213;19;20143;-72
2023/01/30 06:53:05;;;;;;;10.13;5.20;;;3.30;99.90;;;;;;7394201;19;20231;-73
2023/01/30 06:55:35;;;;;;;8.20;5.10;;;3.30;99.90;;;;;;7392835;19;20142;-72
2023/01/30 06:58:04;;;;;;;13.00;5.33;;;3.40;99.90;;;;;;7390177;19;20203;-72
2023/01/30 07:00:31;;;;;;;10.07;5.07;;;3.40;99.90;;;;;;7390078;19;20212;-73
2023/01/30 07:02:57;;;;;;;11.23;5.70;;;3.30;99.90;;;;;;7392495;19;20154;-73
2023/01/30 07:05:22;;;;;;;7.63;4.73;;;3.10;99.90;;;;;;7391527;19;20122;-73
2023/01/30 07:07:48;;;;;;;8.97;5.03;;;3.00;99.90;;;;;;7389288;19;20607;-72
2023/01/30 07:10:14;;;;;;;12.47;5.80;;;2.90;99.90;;;;;;7391278;19;20919;-72
2023/01/30 07:12:40;;;;;;;11.37;6.50;;;3.00;99.90;;;;;;7389162;19;20140;-73
2023/01/30 07:15:06;;;;;;;9.63;5.87;;;3.20;99.90;;;;;;7391614;19;20153;-72
2023/01/30 07:17:32;;;;;;;8.93;5.90;;;3.30;99.90;;;;;;7390736;19;20682;-73
2023/01/30 07:19:58;;;;;;;9.77;5.93;;;3.30;99.90;;;;;;7390328;19;20166;-72
2023/01/30 07:22:24;;;;;;;8.77;5.00;;;3.40;99.90;;;;;;7390255;19;20147;-72
2023/01/30 07:24:50;;;;;;;9.30;5.10;;;3.40;99.90;;;;;;7388023;19;20999;-71
2023/01/30 07:27:16;;;;;;;15.37;5.43;;;3.30;99.90;;;;;;7387118;19;20138;-73
2023/01/30 07:29:42;;;;;;;7.60;4.83;;;3.20;99.90;;;;;;7388911;19;20162;-73
2023/01/30 07:32:15;;;;;;;11.90;5.00;;;3.20;99.90;;;;;;7391377;19;20213;-72
2023/01/30 07:34:40;;;;;;;8.30;4.80;;;3.60;99.90;;;;;;7391430;19;20190;-71
2023/01/30 07:37:06;;;;;;;7.43;4.80;;;3.60;99.90;;;;;;7390090;19;20486;-72
2023/01/30 07:39:34;;;;;;;8.03;4.57;;;3.40;99.90;;;;;;7393670;19;20180;-73
2023/01/30 07:42:00;;;;;;;9.50;5.07;;;3.20;99.90;;;;;;7390269;19;20145;-71
2023/01/30 07:44:26;;;;;;;9.63;5.30;;;3.50;99.90;;;;;;7391244;19;20551;-75
2023/01/30 07:46:52;;;;;;;5.77;3.83;;;3.70;99.90;;;;;;7390543;19;20146;-70
2023/01/30 07:49:18;;;;;;;7.07;4.60;;;3.40;99.90;;;;;;7392510;19;20145;-72
2023/01/30 07:51:44;;;;;;;8.23;4.80;;;3.60;99.90;;;;;;7391105;19;20146;-74
2023/01/30 07:54:10;;;;;;;11.33;4.97;;;3.60;99.90;;;;;;7390371;19;20520;-72
2023/01/30 07:56:36;;;;;;;11.63;6.90;;;3.80;99.90;;;;;;7390221;19;20175;-70
2023/01/30 07:59:02;;;;;;;8.10;4.47;;;3.80;99.90;;;;;;7392230;19;20131;-71
2023/01/30 08:01:28;;;;;;;6.93;4.40;;;3.90;99.90;;;;;;7389500;19;20161;-71
2023/01/30 08:03:53;;;;;;;8.23;4.67;;;3.90;99.90;;;;;;7389969;19;20138;-71
2023/01/30 08:06:19;;;;;;;7.77;4.47;;;3.90;99.90;;;;;;7388094;19;20169;-71
2023/01/30 08:08:45;;;;;;;9.17;4.80;;;3.60;99.90;;;;;;7390452;19;20139;-71
2023/01/30 08:11:11;;;;;;;6.70;4.30;;;3.70;99.90;;;;;;7390715;19;20499;-71
2023/01/30 08:13:37;;;;;;;7.90;4.43;;;3.90;99.90;;;;;;7388132;19;20559;-73
2023/01/30 08:16:05;;;;;;;6.60;4.00;;;3.70;99.90;;;;;;7389079;19;20156;-71
2023/01/30 08:18:32;;;;;;;5.70;4.13;;;3.80;99.90;;;;;;7391586;19;20142;-72
2023/01/30 08:21:04;;;;;;;6.20;4.10;;;3.60;99.90;;;;;;7388456;19;20157;-73
2023/01/30 08:23:31;;;;;;;8.10;4.50;;;3.60;99.90;;;;;;7390185;19;20134;-73
2023/01/30 08:25:59;;;;;;;8.20;4.00;;;3.70;99.90;;;;;;7395068;19;20142;-69
2023/01/30 08:28:27;;;;;;;5.27;3.77;;;3.80;99.90;;;;;;7390127;19;20126;-72
2023/01/30 08:30:53;;;;;;;6.03;4.27;;;4.00;99.90;;;;;;7390017;19;20135;-72
2023/01/30 08:33:20;;;;;;;9.77;5.60;;;4.00;99.90;;;;;;7386641;19;20134;-72
2023/01/30 08:35:46;;;;;;;9.53;4.87;;;3.90;99.90;;;;;;7385606;19;20152;-71
2023/01/30 08:38:12;;;;;;;10.83;5.63;;;4.10;99.90;;;;;;7383303;19;20146;-71
2023/01/30 08:40:38;;;;;;;7.57;5.23;;;3.80;99.90;;;;;;7384953;19;20154;-72
2023/01/30 08:43:05;;;;;;;9.33;4.63;;;3.70;99.90;;;;;;7382074;19;20131;-72
2023/01/30 08:45:31;;;;;;;8.90;4.97;;;3.90;99.90;;;;;;7381604;19;20146;-71
2023/01/30 08:48:02;;;;;;;9.00;5.40;;;4.10;99.90;;;;;;7386286;19;21283;-71
2023/01/30 08:50:28;;;;;;;8.17;5.23;;;4.10;99.90;;;;;;7392111;19;20418;-72
2023/01/30 08:52:54;;;;;;;7.53;4.60;;;3.90;99.90;;;;;;7388663;19;20186;-72
2023/01/30 08:55:21;;;;;;;8.20;4.60;;;4.20;99.90;;;;;;7387192;19;20529;-72
2023/01/30 08:57:47;;;;;;;8.07;4.70;;;4.20;99.90;;;;;;7383037;19;20147;-72
2023/01/30 09:00:14;;;;;;;12.83;5.20;;;4.10;99.90;;;;;;7383198;19;20178;-72
2023/01/30 09:02:40;;;;;;;8.20;4.13;;;4.00;99.90;;;;;;7387857;19;20166;-72
2023/01/30 09:05:06;;;;;;;6.27;4.53;;;4.10;99.90;;;;;;7389977;19;20138;-72
2023/01/30 09:07:33;;;;;;;5.90;3.93;;;4.10;99.90;;;;;;7390629;19;20150;-72
2023/01/30 09:09:59;;;;;;;7.80;4.30;;;4.30;99.90;;;;;;7393120;19;20135;-73
2023/01/30 09:12:25;;;;;;;5.60;4.13;;;4.00;99.90;;;;;;7391952;19;20142;-74
2023/01/30 09:14:56;;;;;;;8.53;4.20;;;4.20;99.90;;;;;;7397098;19;20131;-73
2023/01/30 09:17:24;;;;;;;6.67;4.07;;;4.40;99.90;;;;;;7397214;19;20139;-74
2023/01/30 09:19:50;;;;;;;7.90;3.97;;;4.70;99.90;;;;;;7392668;19;20177;-73
2023/01/30 09:22:16;;;;;;;6.77;3.87;;;4.70;99.90;;;;;;7396383;19;20194;-73
2023/01/30 09:24:43;;;;;;;7.73;3.60;;;4.80;99.90;;;;;;7396132;19;20162;-73
2023/01/30 09:27:08;;;;;;;5.00;3.83;;;4.90;99.90;;;;;;7394433;19;20437;-72
2023/01/30 09:29:34;;;;;;;5.87;3.47;;;4.80;99.90;;;;;;7398791;19;20131;-72
2023/01/30 09:32:00;;;;;;;7.27;4.13;;;4.70;99.90;;;;;;7395754;19;20139;-73
2023/01/30 09:34:27;;;;;;;5.40;3.43;;;4.60;99.90;;;;;;7393567;19;20584;-72
2023/01/30 09:37:00;;;;;;;6.57;3.73;;;4.50;99.90;;;;;;7395957;19;20147;-72
2023/01/30 09:39:27;;;;;;;7.93;3.83;;;4.50;99.90;;;;;;7395483;19;20659;-72
2023/01/30 09:42:04;;;;;;;8.63;3.53;;;4.50;99.90;;;;;;7394562;19;20229;-75
2023/01/30 09:44:51;;;;;;;6.77;4.10;;;4.70;99.90;;;;;;7396912;19;20178;-73
2023/01/30 09:47:35;;;;;;;3.97;3.13;;;4.60;99.90;;;;;;7392541;19;20127;-74
2023/01/30 09:50:21;;;;;;;7.80;3.20;;;4.60;99.90;;;;;;7395342;19;20188;-74
2023/01/30 09:53:12;;;;;;;6.73;3.57;;;4.50;99.90;;;;;;7394098;19;20148;-74
2023/01/30 09:55:42;;;;;;;5.23;3.10;;;4.50;99.90;;;;;;7395572;19;20180;-73
2023/01/30 09:58:19;;;;;;;9.13;3.70;;;4.70;99.90;;;;;;7394777;19;20130;-72
2023/01/30 10:00:47;;;;;;;9.00;3.50;;;4.90;99.90;;;;;;7390151;19;20283;-74
2023/01/30 10:03:37;;;;;;;4.73;3.30;;;4.90;99.90;;;;;;7393262;19;20524;-73
2023/01/30 10:06:12;;;;;;;9.50;2.97;;;5.00;99.90;;;;;;7392583;19;20497;-74
2023/01/30 10:09:14;;;;;;;4.83;2.90;;;5.00;99.90;;;;;;7397411;19;20138;-71
2023/01/30 10:11:53;;;;;;;4.50;2.80;;;5.00;99.90;;;;;;7400930;19;20147;-73
2023/01/30 10:14:30;;;;;;;5.53;3.37;;;5.20;99.90;;;;;;7396565;19;20146;-73
2023/01/30 10:17:02;;;;;;;5.63;2.77;;;5.30;99.90;;;;;;7396454;19;20604;-73
2023/01/30 10:20:00;;;;;;;4.70;2.80;;;5.20;99.90;;;;;;7393069;19;20587;-73
2023/01/30 10:22:51;;;;;;;5.37;3.43;;;5.40;99.90;;;;;;7394903;19;20162;-73
2023/01/30 10:25:22;;;;;;;7.43;4.40;;;5.30;99.90;;;;;;7393120;19;20399;-72
2023/01/30 10:28:00;;;;;;;5.53;2.67;;;5.20;99.90;;;;;;7395662;19;20138;-73
2023/01/30 10:30:26;;;;;;;3.60;2.47;;;5.30;99.90;;;;;;7395503;19;20150;-73
2023/01/30 10:32:58;;;;;;;4.00;2.47;;;5.30;99.90;;;;;;7395283;19;20171;-72
2023/01/30 10:35:31;;;;;;;7.60;2.47;;;5.40;99.90;;;;;;7394681;19;20234;-73
2023/01/30 10:38:11;;;;;;;4.40;2.50;;;5.30;99.90;;;;;;7395493;19;20155;-74
2023/01/30 10:40:42;;;;;;;3.17;2.30;;;5.40;99.90;;;;;;7393105;19;20139;-72
2023/01/30 10:43:32;;;;;;;3.03;2.00;;;5.50;99.90;;;;;;7392831;19;20231;-73
2023/01/30 10:46:13;;;;;;;2.83;2.10;;;5.40;99.90;;;;;;7395429;19;20142;-73
2023/01/30 10:49:03;;;;;;;5.07;2.83;;;5.60;99.90;;;;;;7394664;19;20170;-71
2023/01/30 10:51:41;;;;;;;3.63;2.30;;;5.60;99.90;;;;;;7394400;19;20143;-72
2023/01/30 10:54:38;;;;;;;3.57;1.97;;;5.50;99.90;;;;;;7387125;19;20142;-73
2023/01/30 10:57:22;;;;;;;3.53;1.90;;;5.30;99.90;;;;;;7392055;19;20143;-72
2023/01/30 11:00:22;;;;;;;3.90;1.97;;;5.50;99.90;;;;;;7391637;19;20149;-72
2023/01/30 11:03:22;;;;;;;3.80;2.00;;;5.60;99.90;;;;;;7388650;19;20154;-73
2023/01/30 11:05:48;;;;;;;3.63;1.90;;;5.50;99.90;;;;;;7391607;19;20583;-74
2023/01/30 11:08:29;;;;;;;2.60;2.03;;;5.60;99.90;;;;;;7388543;19;20135;-73
2023/01/30 11:10:56;;;;;;;1.67;1.30;;;5.60;99.90;;;;;;7390991;19;20127;-73
2023/01/30 11:13:31;;;;;;;3.07;1.87;;;5.60;99.90;;;;;;7391703;19;20583;-72
2023/01/30 11:16:02;;;;;;;1.90;1.43;;;5.80;99.90;;;;;;7393791;19;20138;-72
2023/01/30 11:18:28;;;;;;;2.23;1.67;;;5.70;99.90;;;;;;7394283;19;20470;-72
2023/01/30 11:21:04;;;;;;;3.83;1.50;;;5.90;99.90;;;;;;7389444;19;20174;-73
2023/01/30 11:23:39;;;;;;;3.50;2.20;;;5.80;99.90;;;;;;7391847;19;20236;-72
2023/01/30 11:26:05;;;;;;;6.97;3.63;;;5.60;99.90;;;;;;7391086;19;20168;-72
2023/01/30 11:28:40;;;;;;;3.33;2.53;;;5.70;99.90;;;;;;7391104;19;20131;-71
2023/01/30 11:31:17;;;;;;;3.10;1.90;;;5.70;99.90;;;;;;7391825;19;20670;-71
2023/01/30 11:33:43;;;;;;;5.03;2.50;;;5.80;99.90;;;;;;7391547;19;20134;-72
2023/01/30 11:36:30;;;;;;;2.83;1.77;;;5.90;99.90;;;;;;7390710;19;20485;-72
2023/01/30 11:39:02;;;;;;;3.30;2.17;;;5.80;99.90;;;;;;7396393;19;20135;-73
2023/01/30 11:41:29;;;;;;;2.77;2.13;;;5.70;99.90;;;;;;7390770;19;20145;-71
2023/01/30 11:44:03;;;;;;;3.50;2.40;;;5.80;99.90;;;;;;7385566;19;20131;-72
2023/01/30 11:46:39;;;;;;;3.97;2.83;;;5.50;99.90;;;;;;7393878;19;20142;-72
2023/01/30 11:49:11;;;;;;;6.20;3.90;;;5.50;99.90;;;;;;7391516;19;20131;-73
2023/01/30 11:51:38;;;;;;;5.63;2.87;;;5.60;99.90;;;;;;7391190;19;20134;-72
2023/01/30 11:54:17;;;;;;;5.10;2.20;;;5.30;99.90;;;;;;7389574;19;20202;-72
2023/01/30 11:56:53;;;;;;;5.53;2.60;;;5.30;99.90;;;;;;7390130;19;20269;-72
2023/01/30 11:59:19;;;;;;;3.00;2.27;;;5.30;99.90;;;;;;7391165;19;20138;-72
2023/01/30 12:01:44;;;;;;;3.40;2.27;;;5.30;99.90;;;;;;7387601;19;20160;-72
2023/01/30 12:04:12;;;;;;;3.70;2.60;;;5.30;99.90;;;;;;7387896;19;20139;-73
2023/01/30 12:06:41;;;;;;;4.63;2.67;;;5.40;99.90;;;;;;7389625;19;20150;-71
2023/01/30 12:09:36;;;;;;;3.87;2.60;;;5.30;99.90;;;;;;7387258;19;20161;-70
2023/01/30 12:12:27;;;;;;;5.50;2.80;;;5.30;99.90;;;;;;7391711;19;20134;-73
2023/01/30 12:15:01;;;;;;;3.50;2.70;;;5.20;99.90;;;;;;7390062;19;20226;-71
2023/01/30 12:17:50;;;;;;;4.93;3.63;;;5.30;99.90;;;;;;7391762;19;20142;-71
2023/01/30 12:20:31;;;;;;;3.80;2.50;;;5.20;99.90;;;;;;7387074;19;20171;-71
2023/01/30 12:23:34;;;;;;;5.83;3.20;;;5.30;99.90;;;;;;7389464;19;20143;-71
2023/01/30 12:26:04;;;;;;;3.50;2.40;;;5.10;99.90;;;;;;7394330;19;20631;-71
2023/01/30 12:28:51;;;;;;;6.53;2.67;;;5.50;99.90;;;;;;7396257;19;20138;-71
2023/01/30 12:31:43;;;;;;;3.27;2.30;;;5.50;99.90;;;;;;7399374;19;20138;-71
2023/01/30 12:34:10;;;;;;;5.83;2.90;;;5.50;99.90;;;;;;7392037;19;20146;-72
2023/01/30 12:37:07;;;;;;;3.80;2.40;;;5.50;99.90;;;;;;7392468;19;20263;-72
2023/01/30 12:39:52;;;;;;;5.53;2.80;;;5.60;99.90;;;;;;7396565;19;20134;-72
2023/01/30 12:42:50;;;;;;;3.83;2.47;;;5.60;99.90;;;;;;7391161;19;20163;-70
2023/01/30 12:45:31;;;;;;;3.97;2.33;;;5.50;99.90;;;;;;7395404;19;20139;-72
2023/01/30 12:48:15;;;;;;;3.83;2.37;;;5.30;99.90;;;;;;7396131;19;20150;-72
2023/01/30 12:50:57;;;;;;;4.50;2.70;;;5.40;99.90;;;;;;7395355;19;20745;-72
2023/01/30 12:54:04;;;;;;;3.53;2.60;;;5.20;99.90;;;;;;7394543;19;20143;-73
2023/01/30 12:56:36;;;;;;;6.23;2.70;;;5.30;99.90;;;;;;7392533;19;20146;-72
2023/01/30 12:59:10;;;;;;;4.87;3.30;;;5.40;99.90;;;;;;7391590;19;20487;-71
2023/01/30 13:01:47;;;;;;;5.40;2.37;;;5.50;99.90;;;;;;7387224;19;20182;-71
2023/01/30 13:04:23;;;;;;;7.97;4.27;;;5.30;99.90;;;;;;7391208;19;20134;-73
2023/01/30 13:06:58;;;;;;;5.00;2.67;;;5.10;99.90;;;;;;7391886;19;20146;-72
2023/01/30 13:09:39;;;;;;;4.33;2.77;;;5.30;99.90;;;;;;7388536;19;20142;-73
2023/01/30 13:12:34;;;;;;;4.07;2.67;;;5.40;99.90;;;;;;7393289;19;20122;-72
2023/01/30 13:15:34;;;;;;;7.97;3.00;;;5.30;99.90;;;;;;7390607;19;20135;-71
2023/01/30 13:18:13;;;;;;;3.77;2.47;;;5.50;99.90;;;;;;7391401;19;20611;-71